createdAt,value
2018-06-13T00:00:47.189Z,17.60
2018-06-13T00:03:15.237Z,17.50
2018-06-13T00:08:11.237Z,17.40
2018-06-13T00:10:39.281Z,17.30
2018-06-13T00:13:07.325Z,17.30
2018-06-13T00:15:35.364Z,17.30
2018-06-13T00:20:31.244Z,17.30
2018-06-13T00:22:59.292Z,17.30
2018-06-13T00:27:55.272Z,17.40
2018-06-13T00:32:51.170Z,17.30
2018-06-13T00:35:19.240Z,17.30
2018-06-13T00:37:47.289Z,17.40
2018-06-13T00:40:15.324Z,17.40
2018-06-13T00:42:43.366Z,17.40
2018-06-13T00:45:11.409Z,17.50
2018-06-13T00:47:39.448Z,17.50
2018-06-13T00:52:35.392Z,17.40
2018-06-13T00:55:03.435Z,17.40
2018-06-13T00:57:31.469Z,17.40
2018-06-13T00:59:59.524Z,17.30
2018-06-13T01:02:27.568Z,17.30
2018-06-13T01:04:55.620Z,17.30
2018-06-13T01:07:23.660Z,17.20
2018-06-13T01:09:51.717Z,17.10
2018-06-13T01:12:19.760Z,17.00
2018-06-13T01:14:47.805Z,17.00
2018-06-13T01:17:15.852Z,17.00
2018-06-13T01:19:43.897Z,17.00
2018-06-13T01:22:11.941Z,17.00
2018-06-13T01:24:39.988Z,16.90
2018-06-13T01:27:08.037Z,16.90
2018-06-13T01:29:36.080Z,16.90
2018-06-13T01:32:04.125Z,16.70
2018-06-13T01:34:32.180Z,16.70
2018-06-13T01:37:00.218Z,16.70
2018-06-13T01:39:28.260Z,16.70
2018-06-13T01:41:56.312Z,16.70
2018-06-13T01:44:24.356Z,16.80
2018-06-13T01:46:52.402Z,16.80
2018-06-13T01:49:20.452Z,16.80
2018-06-13T01:51:48.499Z,16.90
2018-06-13T01:54:16.548Z,16.80
2018-06-13T01:56:44.597Z,16.80
2018-06-13T01:59:12.648Z,16.80
2018-06-13T02:01:40.685Z,16.90
2018-06-13T02:04:08.732Z,16.90
2018-06-13T02:06:36.773Z,16.90
2018-06-13T02:09:06.740Z,16.90
2018-06-13T02:11:34.777Z,16.90
2018-06-13T02:14:03.017Z,16.90
2018-06-13T02:16:31.061Z,16.90
2018-06-13T02:18:59.113Z,16.90
2018-06-13T02:21:27.148Z,16.90
2018-06-13T02:23:55.199Z,16.90
2018-06-13T02:26:23.241Z,16.90
2018-06-13T02:28:51.288Z,16.90
2018-06-13T02:31:19.357Z,16.90
2018-06-13T02:33:47.410Z,16.90
2018-06-13T02:36:15.453Z,16.80
2018-06-13T02:38:43.504Z,16.80
2018-06-13T02:41:11.584Z,16.80
2018-06-13T02:43:39.641Z,16.80
2018-06-13T02:48:35.518Z,16.70
2018-06-13T02:51:03.625Z,16.60
2018-06-13T02:53:31.604Z,16.50
2018-06-13T02:55:59.645Z,16.50
2018-06-13T02:58:27.682Z,16.40
2018-06-13T03:00:55.728Z,16.30
2018-06-13T03:03:23.764Z,16.40
2018-06-13T03:05:51.813Z,16.40
2018-06-13T03:08:19.857Z,16.40
2018-06-13T03:10:47.908Z,16.40
2018-06-13T03:13:15.955Z,16.40
2018-06-13T03:15:44.002Z,16.40
2018-06-13T03:20:40.017Z,16.40
2018-06-13T03:23:08.065Z,16.40
2018-06-13T03:25:36.117Z,16.40
2018-06-13T03:28:04.160Z,16.40
2018-06-13T03:30:32.214Z,16.40
2018-06-13T03:33:00.268Z,16.30
2018-06-13T03:35:28.316Z,16.30
2018-06-13T03:37:56.361Z,16.30
2018-06-13T03:40:24.409Z,16.40
2018-06-13T03:42:52.448Z,16.30
2018-06-13T03:45:20.506Z,16.20
2018-06-13T03:47:48.545Z,16.30
2018-06-13T03:50:16.606Z,16.20
2018-06-13T03:52:44.641Z,16.20
2018-06-13T03:55:12.692Z,16.10
2018-06-13T03:57:40.733Z,16.10
2018-06-13T04:00:08.780Z,16.10
2018-06-13T04:02:36.829Z,16.10
2018-06-13T04:05:04.892Z,16.00
2018-06-13T04:07:32.924Z,15.90
2018-06-13T04:10:00.985Z,15.80
2018-06-13T04:12:29.020Z,15.80
2018-06-13T04:14:57.060Z,15.80
2018-06-13T04:17:25.113Z,15.80
2018-06-13T04:19:53.156Z,15.70
2018-06-13T04:22:21.250Z,15.70
2018-06-13T04:24:49.252Z,15.90
2018-06-13T04:27:17.289Z,15.90
2018-06-13T04:29:45.345Z,15.90
2018-06-13T04:32:13.401Z,16.10
2018-06-13T04:34:41.476Z,16.20
2018-06-13T04:37:09.533Z,16.30
2018-06-13T04:39:37.599Z,16.30
2018-06-13T04:42:05.666Z,16.30
2018-06-13T04:44:33.737Z,16.20
2018-06-13T04:47:01.797Z,16.20
2018-06-13T04:49:29.858Z,16.10
2018-06-13T04:51:57.923Z,16.10
2018-06-13T04:54:25.985Z,16.00
2018-06-13T04:56:54.042Z,16.00
2018-06-13T04:59:22.100Z,15.90
2018-06-13T05:01:50.179Z,15.90
2018-06-13T05:04:18.285Z,16.00
2018-06-13T05:06:46.337Z,15.90
2018-06-13T05:09:14.396Z,16.00
2018-06-13T05:11:42.469Z,16.00
2018-06-13T05:14:10.533Z,16.00
2018-06-13T05:16:38.590Z,16.10
2018-06-13T05:19:06.640Z,16.10
2018-06-13T05:21:34.708Z,16.00
2018-06-13T05:24:02.768Z,16.00
2018-06-13T05:26:30.832Z,15.90
2018-06-13T05:28:58.885Z,15.80
2018-06-13T05:31:26.946Z,15.90
2018-06-13T05:33:55.019Z,15.90
2018-06-13T05:36:23.072Z,15.90
2018-06-13T05:38:51.155Z,15.90
2018-06-13T05:41:19.184Z,15.90
2018-06-13T05:43:47.295Z,15.90
2018-06-13T05:46:15.301Z,15.90
2018-06-13T05:48:43.352Z,15.90
2018-06-13T05:51:11.418Z,15.90
2018-06-13T05:53:39.477Z,16.00
2018-06-13T05:56:07.532Z,15.90
2018-06-13T05:58:35.597Z,15.90
2018-06-13T06:01:03.678Z,15.90
2018-06-13T06:03:31.733Z,15.90
2018-06-13T06:05:59.800Z,16.10
2018-06-13T06:08:28.126Z,16.10
2018-06-13T06:10:56.185Z,16.30
2018-06-13T06:13:24.244Z,16.40
2018-06-13T06:15:52.313Z,16.70
2018-06-13T06:18:20.458Z,17.00
2018-06-13T06:20:48.460Z,17.50
2018-06-13T06:23:16.516Z,18.10
2018-06-13T06:25:44.579Z,18.80
2018-06-13T06:28:12.646Z,19.90
2018-06-13T06:30:40.713Z,21.20
2018-06-13T06:33:08.763Z,22.10
2018-06-13T06:35:36.809Z,22.70
2018-06-13T06:38:04.852Z,23.80
2018-06-13T06:40:32.893Z,24.50
2018-06-13T06:43:00.933Z,24.40
2018-06-13T06:45:29.817Z,24.90
2018-06-13T06:47:57.949Z,25.60
2018-06-13T06:50:25.993Z,26.20
2018-06-13T06:52:54.033Z,26.80
2018-06-13T06:55:22.104Z,27.50
2018-06-13T06:57:50.104Z,28.60
2018-06-13T07:00:18.149Z,29.40
2018-06-13T07:02:46.229Z,29.40
2018-06-13T07:05:14.233Z,28.90
2018-06-13T07:07:42.277Z,28.60
2018-06-13T07:10:10.319Z,27.30
2018-06-13T07:12:38.349Z,26.20
2018-06-13T07:15:06.525Z,25.40
2018-06-13T07:17:34.569Z,24.50
2018-06-13T07:20:02.605Z,23.70
2018-06-13T07:22:30.649Z,23.10
2018-06-13T07:24:58.684Z,22.50
2018-06-13T07:27:26.721Z,22.00
2018-06-13T07:32:22.672Z,21.40
2018-06-13T07:34:50.721Z,21.20
2018-06-13T07:37:18.758Z,21.20
2018-06-13T07:39:46.862Z,21.10
2018-06-13T07:42:14.906Z,21.40
2018-06-13T07:44:42.942Z,21.90
2018-06-13T07:47:10.985Z,22.20
2018-06-13T07:49:39.018Z,22.20
2018-06-13T07:52:07.057Z,22.40
2018-06-13T07:54:35.098Z,22.50
2018-06-13T07:57:03.154Z,22.50
2018-06-13T07:59:31.185Z,22.40
2018-06-13T08:01:59.232Z,22.20
2018-06-13T08:04:27.265Z,21.90
2018-06-13T08:06:55.305Z,22.00
2018-06-13T08:09:23.340Z,21.80
2018-06-13T08:11:51.385Z,21.80
2018-06-13T08:14:19.429Z,21.70
2018-06-13T08:16:47.514Z,21.70
2018-06-13T08:19:15.509Z,21.70
2018-06-13T08:21:43.553Z,21.60
2018-06-13T08:24:11.632Z,21.50
2018-06-13T08:26:39.670Z,21.30
2018-06-13T08:29:07.705Z,21.10
2018-06-13T08:31:35.754Z,20.90
2018-06-13T08:34:03.793Z,20.60
2018-06-13T08:36:31.841Z,20.30
2018-06-13T08:38:59.876Z,20.10
2018-06-13T08:41:27.921Z,19.90
2018-06-13T08:43:56.009Z,19.80
2018-06-13T08:46:24.066Z,19.60
2018-06-13T08:48:52.096Z,19.60
2018-06-13T08:51:20.146Z,19.60
2018-06-13T08:53:48.172Z,19.30
2018-06-13T08:56:16.213Z,19.10
2018-06-13T08:58:44.248Z,19.00
2018-06-13T09:01:12.297Z,18.70
2018-06-13T09:03:40.333Z,18.60
2018-06-13T09:06:08.402Z,18.50
2018-06-13T09:08:36.449Z,18.50
2018-06-13T09:11:04.481Z,18.40
2018-06-13T09:13:32.525Z,18.50
2018-06-13T09:16:00.556Z,18.50
2018-06-13T09:18:28.598Z,18.40
2018-06-13T09:20:56.632Z,18.40
2018-06-13T09:23:24.681Z,18.30
2018-06-13T09:25:52.722Z,18.40
2018-06-13T09:28:20.760Z,18.40
2018-06-13T09:30:48.796Z,18.40
2018-06-13T09:33:16.853Z,18.50
2018-06-13T09:35:44.884Z,18.50
2018-06-13T09:38:12.925Z,18.40
2018-06-13T09:40:40.956Z,18.50
2018-06-13T09:43:09.007Z,18.40
2018-06-13T09:45:37.061Z,18.50
2018-06-13T09:48:05.109Z,18.60
2018-06-13T09:50:33.149Z,18.60
2018-06-13T09:53:01.194Z,18.80
2018-06-13T09:55:29.216Z,18.90
2018-06-13T09:57:57.260Z,19.20
2018-06-13T10:00:30.836Z,19.30
2018-06-13T10:02:58.876Z,19.50
2018-06-13T10:05:26.929Z,19.70
2018-06-13T10:07:54.965Z,19.80
2018-06-13T10:10:22.997Z,20.10
2018-06-13T10:12:51.041Z,20.30
2018-06-13T10:15:19.063Z,20.60
2018-06-13T10:17:47.117Z,20.90
2018-06-13T10:20:15.157Z,21.20
2018-06-13T10:22:43.202Z,21.50
2018-06-13T10:25:11.236Z,21.70
2018-06-13T10:27:41.040Z,22.10
2018-06-13T10:30:09.082Z,22.20
2018-06-13T10:32:37.125Z,22.30
2018-06-13T10:35:05.223Z,22.50
2018-06-13T10:37:33.284Z,22.50
2018-06-13T10:40:01.345Z,22.40
2018-06-13T10:42:29.456Z,22.10
2018-06-13T10:44:57.517Z,21.90
2018-06-13T10:47:25.577Z,21.70
2018-06-13T10:49:53.629Z,21.50
2018-06-13T10:52:21.689Z,21.40
2018-06-13T10:54:49.749Z,21.30
2018-06-13T10:57:17.814Z,21.20
2018-06-13T10:59:45.864Z,21.00
2018-06-13T11:02:13.920Z,20.90
2018-06-13T11:04:41.985Z,20.90
2018-06-13T11:07:10.090Z,20.80
2018-06-13T11:09:38.132Z,20.80
2018-06-13T11:12:06.253Z,20.90
2018-06-13T11:14:34.311Z,21.00
2018-06-13T11:17:02.373Z,21.20
2018-06-13T11:19:30.432Z,21.20
2018-06-13T11:21:58.484Z,21.30
2018-06-13T11:24:26.544Z,21.60
2018-06-13T11:26:54.604Z,21.60
2018-06-13T11:29:22.660Z,21.70
2018-06-13T11:31:50.718Z,21.90
2018-06-13T11:34:18.900Z,22.20
2018-06-13T11:36:46.949Z,22.30
2018-06-13T11:39:15.001Z,22.60
2018-06-13T11:41:43.302Z,22.90
2018-06-13T11:44:11.356Z,23.10
2018-06-13T11:46:39.414Z,23.20
2018-06-13T11:49:07.842Z,23.00
2018-06-13T11:51:35.897Z,23.00
2018-06-13T11:54:04.110Z,22.80
2018-06-13T11:56:32.160Z,22.50
2018-06-13T11:59:00.224Z,22.20
2018-06-13T12:01:28.285Z,21.80
2018-06-13T12:03:56.353Z,21.60
2018-06-13T12:06:24.417Z,21.50
2018-06-13T12:08:52.481Z,21.40
2018-06-13T12:11:20.652Z,21.20
2018-06-13T12:13:48.716Z,21.00
2018-06-13T12:16:16.773Z,21.00
2018-06-13T12:18:44.833Z,20.90
2018-06-13T12:21:12.889Z,21.00
2018-06-13T12:23:40.956Z,21.10
2018-06-13T12:26:09.036Z,21.10
2018-06-13T12:28:37.153Z,21.30
2018-06-13T12:31:05.160Z,21.30
2018-06-13T12:33:33.234Z,21.30
2018-06-13T12:36:01.550Z,21.40
2018-06-13T12:38:29.617Z,21.40
2018-06-13T12:40:57.813Z,21.40
2018-06-13T12:43:25.873Z,21.50
2018-06-13T12:45:53.924Z,21.60
2018-06-13T12:48:21.989Z,21.30
2018-06-13T12:50:50.075Z,21.50
2018-06-13T12:53:18.108Z,21.70
2018-06-13T12:55:46.168Z,21.70
2018-06-13T12:58:14.233Z,21.70
2018-06-13T13:00:42.281Z,21.50
2018-06-13T13:03:10.340Z,21.30
2018-06-13T13:05:38.405Z,21.10
2018-06-13T13:08:06.457Z,21.00
2018-06-13T13:10:34.570Z,20.90
2018-06-13T13:13:02.668Z,20.90
2018-06-13T13:15:30.728Z,20.70
2018-06-13T13:17:58.785Z,20.70
2018-06-13T13:20:26.861Z,20.80
2018-06-13T13:22:54.906Z,20.70
2018-06-13T13:25:22.965Z,20.80
2018-06-13T13:27:51.028Z,20.90
2018-06-13T13:30:19.088Z,21.00
2018-06-13T13:32:47.132Z,20.90
2018-06-13T13:35:15.172Z,21.10
2018-06-13T13:37:43.208Z,21.10
2018-06-13T13:40:11.262Z,21.00
2018-06-13T13:42:39.301Z,20.80
2018-06-13T13:45:07.349Z,20.70
2018-06-13T13:47:35.381Z,20.60
2018-06-13T13:50:03.437Z,20.60
2018-06-13T13:52:31.492Z,20.60
2018-06-13T13:54:59.533Z,20.40
2018-06-13T13:57:27.564Z,20.40
2018-06-13T13:59:55.601Z,20.30
2018-06-13T14:02:23.641Z,20.30
2018-06-13T14:07:19.617Z,20.50
2018-06-13T14:09:47.656Z,20.60
2018-06-13T14:12:15.713Z,20.70
2018-06-13T14:14:43.736Z,20.80
2018-06-13T14:17:11.778Z,20.90
2018-06-13T14:19:39.816Z,20.90
2018-06-13T14:22:08.160Z,20.90
2018-06-13T14:24:36.253Z,20.70
2018-06-13T14:27:04.288Z,20.70
2018-06-13T14:29:32.372Z,20.70
2018-06-13T14:32:00.378Z,20.80
2018-06-13T14:34:28.433Z,21.00
2018-06-13T14:36:56.462Z,20.90
2018-06-13T14:39:24.500Z,20.90
2018-06-13T14:41:52.540Z,20.90
2018-06-13T14:44:20.572Z,20.90
2018-06-13T14:46:48.613Z,20.90
2018-06-13T14:49:16.652Z,20.70
2018-06-13T14:51:47.120Z,20.60
2018-06-13T14:54:15.164Z,20.60
2018-06-13T14:56:43.237Z,20.50
2018-06-13T14:59:11.252Z,20.50
2018-06-13T15:01:39.293Z,20.60
2018-06-13T15:04:07.341Z,20.40
2018-06-13T15:06:35.381Z,20.40
2018-06-13T15:09:05.521Z,20.20
2018-06-13T15:11:33.548Z,20.10
2018-06-13T15:14:01.589Z,19.90
2018-06-13T15:16:29.637Z,19.90
2018-06-13T15:18:57.714Z,19.90
2018-06-13T15:21:25.775Z,20.00
2018-06-13T15:23:53.903Z,20.00
2018-06-13T15:26:21.940Z,19.90
2018-06-13T15:28:49.982Z,19.90
2018-06-13T15:31:18.028Z,19.80
2018-06-13T15:33:46.080Z,19.80
2018-06-13T15:36:14.474Z,19.80
2018-06-13T15:38:42.504Z,19.70
2018-06-13T15:41:10.558Z,19.60
2018-06-13T15:43:38.592Z,19.60
2018-06-13T15:46:06.633Z,19.60
2018-06-13T15:48:34.665Z,19.50
2018-06-13T15:53:30.866Z,19.30
2018-06-13T15:55:58.923Z,19.30
2018-06-13T15:58:26.976Z,19.30
2018-06-13T16:00:55.022Z,19.30
2018-06-13T16:03:23.064Z,19.30
2018-06-13T16:05:51.096Z,19.40
2018-06-13T16:08:19.132Z,19.50
2018-06-13T16:10:47.186Z,19.40
2018-06-13T16:13:15.217Z,19.60
2018-06-13T16:15:43.252Z,19.60
2018-06-13T16:18:11.288Z,19.60
2018-06-13T16:20:39.328Z,19.70
2018-06-13T16:23:07.378Z,19.80
2018-06-13T16:25:35.434Z,19.90
2018-06-13T16:28:03.464Z,20.00
2018-06-13T16:30:31.519Z,20.10
2018-06-13T16:32:59.565Z,20.20
2018-06-13T16:35:27.605Z,20.30
2018-06-13T16:37:55.785Z,20.40
2018-06-13T16:40:23.829Z,20.50
2018-06-13T16:42:51.870Z,20.60
2018-06-13T16:45:19.909Z,20.70
2018-06-13T16:47:48.129Z,20.70
2018-06-13T16:50:27.668Z,20.70
2018-06-13T16:53:07.954Z,20.60
2018-06-13T16:55:36.005Z,20.60
2018-06-13T16:58:04.060Z,20.50
2018-06-13T17:00:32.104Z,20.50
2018-06-13T17:03:00.144Z,20.50
2018-06-13T17:05:28.192Z,20.50
2018-06-13T17:07:56.225Z,20.40
2018-06-13T17:10:24.273Z,20.40
2018-06-13T17:12:52.313Z,20.40
2018-06-13T17:15:20.356Z,20.30
2018-06-13T17:17:48.384Z,20.40
2018-06-13T17:20:16.428Z,20.40
2018-06-13T17:22:44.460Z,20.30
2018-06-13T17:25:12.500Z,20.30
2018-06-13T17:27:40.580Z,20.30
2018-06-13T17:30:08.590Z,20.20
2018-06-13T17:32:36.641Z,20.20
2018-06-13T17:35:04.709Z,20.20
2018-06-13T17:37:32.757Z,20.20
2018-06-13T17:40:00.788Z,20.20
2018-06-13T17:42:28.833Z,20.10
2018-06-13T17:44:56.873Z,20.00
2018-06-13T17:47:24.905Z,20.10
2018-06-13T17:49:52.941Z,20.10
2018-06-13T17:52:20.989Z,20.00
2018-06-13T17:54:49.025Z,19.80
2018-06-13T17:57:17.068Z,19.70
2018-06-13T17:59:45.112Z,19.70
2018-06-13T18:02:13.141Z,19.50
2018-06-13T18:04:41.181Z,19.20
2018-06-13T18:07:09.221Z,19.10
2018-06-13T18:09:37.299Z,19.10
2018-06-13T18:12:05.303Z,19.20
2018-06-13T18:14:33.343Z,19.20
2018-06-13T18:17:01.386Z,19.10
2018-06-13T18:19:29.424Z,19.00
2018-06-13T18:21:57.464Z,19.00
2018-06-13T18:24:25.504Z,18.90
2018-06-13T18:26:53.553Z,18.90
2018-06-13T18:29:21.598Z,18.90
2018-06-13T18:31:49.648Z,18.70
2018-06-13T18:34:17.736Z,18.70
2018-06-13T18:36:45.744Z,18.70
2018-06-13T18:39:20.336Z,18.70
2018-06-13T18:41:48.373Z,18.70
2018-06-13T18:44:16.438Z,18.60
2018-06-13T18:46:44.486Z,18.60
2018-06-13T18:49:12.524Z,18.60
2018-06-13T18:51:40.921Z,18.50
2018-06-13T18:54:09.005Z,18.40
2018-06-13T18:56:37.064Z,18.40
2018-06-13T18:59:05.138Z,18.40
2018-06-13T19:01:33.197Z,18.30
2018-06-13T19:04:01.307Z,18.30
2018-06-13T19:06:29.329Z,18.30
2018-06-13T19:08:57.387Z,18.10
2018-06-13T19:11:25.448Z,18.00
2018-06-13T19:13:53.512Z,18.00
2018-06-13T19:16:21.577Z,18.00
2018-06-13T19:18:49.632Z,18.00
2018-06-13T19:21:17.864Z,18.00
2018-06-13T19:23:45.925Z,17.90
2018-06-13T19:26:14.025Z,17.80
2018-06-13T19:28:42.090Z,17.80
2018-06-13T19:31:10.158Z,17.80
2018-06-13T19:33:38.213Z,17.70
2018-06-13T19:36:06.285Z,17.70
2018-06-13T19:38:34.336Z,17.70
2018-06-13T19:41:02.363Z,17.70
2018-06-13T19:43:35.776Z,17.70
2018-06-13T19:46:03.921Z,17.70
2018-06-13T19:48:37.481Z,17.60
2018-06-13T19:51:05.523Z,17.60
2018-06-13T19:53:39.093Z,17.60
2018-06-13T19:56:08.336Z,17.70
2018-06-13T19:58:37.471Z,17.60
2018-06-13T20:01:05.845Z,17.60
2018-06-13T20:03:39.313Z,17.50
2018-06-13T20:06:07.545Z,17.50
2018-06-13T20:08:35.852Z,17.40
2018-06-13T20:11:03.892Z,17.50
2018-06-13T20:13:37.476Z,17.50
2018-06-13T20:16:10.965Z,17.50
2018-06-13T20:18:44.428Z,17.50
2018-06-13T20:21:12.744Z,17.40
2018-06-13T20:23:41.769Z,17.40
2018-06-13T20:26:15.363Z,17.40
2018-06-13T20:28:48.808Z,17.50
2018-06-13T20:31:22.980Z,17.50
2018-06-13T20:33:51.017Z,17.50
2018-06-13T20:36:19.060Z,17.50
2018-06-13T20:38:47.104Z,17.50
2018-06-13T20:41:15.132Z,17.40
2018-06-13T20:43:43.186Z,17.20
2018-06-13T20:46:11.233Z,17.20
2018-06-13T20:48:39.292Z,17.20
2018-06-13T20:51:07.404Z,17.10
2018-06-13T20:53:35.571Z,17.10
2018-06-13T20:56:03.609Z,17.00
2018-06-13T20:58:31.644Z,16.90
2018-06-13T21:00:59.689Z,16.90
2018-06-13T21:03:27.728Z,16.90
2018-06-13T21:05:55.809Z,16.90
2018-06-13T21:08:23.808Z,16.90
2018-06-13T21:10:51.845Z,16.80
2018-06-13T21:13:19.925Z,16.80
2018-06-13T21:15:48.133Z,16.80
2018-06-13T21:18:16.305Z,16.80
2018-06-13T21:20:44.349Z,16.80
2018-06-13T21:23:12.685Z,16.80
2018-06-13T21:25:40.729Z,16.80
2018-06-13T21:28:08.769Z,16.80
2018-06-13T21:30:36.820Z,16.80
2018-06-13T21:33:04.960Z,16.80
2018-06-13T21:35:33.002Z,16.80
2018-06-13T21:38:01.033Z,16.80
2018-06-13T21:40:29.085Z,16.80
2018-06-13T21:42:57.121Z,16.80
2018-06-13T21:45:25.197Z,16.80
2018-06-13T21:47:53.236Z,16.70
2018-06-13T21:50:21.281Z,16.70
2018-06-13T21:52:49.325Z,16.70
2018-06-13T21:55:17.360Z,16.80
2018-06-13T21:57:45.401Z,16.70
2018-06-13T22:00:13.457Z,16.80
2018-06-13T22:02:41.522Z,16.70
2018-06-13T22:05:09.573Z,16.70
2018-06-13T22:07:37.617Z,16.60
2018-06-13T22:10:05.673Z,16.60
2018-06-13T22:12:33.715Z,16.60
2018-06-13T22:15:01.777Z,16.60
2018-06-13T22:17:29.825Z,16.60
2018-06-13T22:19:57.873Z,16.60
2018-06-13T22:22:25.909Z,16.60
2018-06-13T22:24:53.957Z,16.60
2018-06-13T22:27:21.984Z,16.60
2018-06-13T22:29:50.025Z,16.60
2018-06-13T22:32:18.066Z,16.60
2018-06-13T22:34:46.129Z,16.60
2018-06-13T22:37:14.200Z,16.50
2018-06-13T22:39:42.261Z,16.50
2018-06-13T22:42:10.329Z,16.40
2018-06-13T22:44:38.376Z,16.40
2018-06-13T22:47:06.449Z,16.50
2018-06-13T22:49:34.500Z,16.50
2018-06-13T22:52:02.573Z,16.50
2018-06-13T22:54:30.630Z,16.50
2018-06-13T22:56:58.693Z,16.50
2018-06-13T22:59:26.757Z,16.50
2018-06-13T23:01:54.818Z,16.50
2018-06-13T23:04:22.881Z,16.50
2018-06-13T23:06:50.936Z,16.50
2018-06-13T23:09:18.992Z,16.50
2018-06-13T23:11:47.148Z,16.50
2018-06-13T23:14:15.196Z,16.50
2018-06-13T23:16:43.270Z,16.40
2018-06-13T23:19:11.314Z,16.40
2018-06-13T23:21:39.408Z,16.40
2018-06-13T23:24:07.469Z,16.40
2018-06-13T23:26:35.574Z,16.40
2018-06-13T23:29:03.600Z,16.40
2018-06-13T23:31:31.661Z,16.40
2018-06-13T23:33:59.729Z,16.40
2018-06-13T23:36:27.786Z,16.40
2018-06-13T23:38:55.849Z,16.40
2018-06-13T23:41:23.905Z,16.30
2018-06-13T23:43:51.968Z,16.30
2018-06-13T23:46:20.021Z,16.30
2018-06-13T23:48:48.097Z,16.30
2018-06-13T23:51:16.157Z,16.30
2018-06-13T23:53:44.224Z,16.40
2018-06-13T23:56:12.277Z,16.40
2018-06-13T23:58:40.342Z,16.40
